sensor_id;sensor_type;location;lat;lon;timestamp;P1;durP1;ratioP1;P2;durP2;ratioP2
49710;SDS011;35602;44.534;18.696;2022-11-18T00:02:15;92.60;;;73.43;;
49710;SDS011;35602;44.534;18.696;2022-11-18T00:07:16;90.72;;;71.28;;
49710;SDS011;35602;44.534;18.696;2022-11-18T00:12:16;83.28;;;66.35;;
49710;SDS011;35602;44.534;18.696;2022-11-18T00:17:36;88.22;;;70.72;;
49710;SDS011;35602;44.534;18.696;2022-11-18T00:22:36;90.05;;;69.40;;
49710;SDS011;35602;44.534;18.696;2022-11-18T00:27:37;86.32;;;67.43;;
49710;SDS011;35602;44.534;18.696;2022-11-18T00:32:38;83.50;;;68.53;;
49710;SDS011;35602;44.534;18.696;2022-11-18T00:37:39;85.75;;;68.03;;
49710;SDS011;35602;44.534;18.696;2022-11-18T00:42:40;86.20;;;67.78;;
49710;SDS011;35602;44.534;18.696;2022-11-18T00:47:53;86.50;;;68.80;;
49710;SDS011;35602;44.534;18.696;2022-11-18T00:52:53;85.15;;;66.45;;
49710;SDS011;35602;44.534;18.696;2022-11-18T00:57:54;84.13;;;66.55;;
49710;SDS011;35602;44.534;18.696;2022-11-18T01:02:55;82.50;;;66.95;;
49710;SDS011;35602;44.534;18.696;2022-11-18T01:07:56;85.93;;;67.25;;
49710;SDS011;35602;44.534;18.696;2022-11-18T01:12:56;82.47;;;65.65;;
49710;SDS011;35602;44.534;18.696;2022-11-18T01:18:16;81.28;;;64.85;;
49710;SDS011;35602;44.534;18.696;2022-11-18T01:23:19;82.53;;;64.78;;
49710;SDS011;35602;44.534;18.696;2022-11-18T01:28:20;79.75;;;64.18;;
49710;SDS011;35602;44.534;18.696;2022-11-18T01:33:21;81.20;;;64.82;;
49710;SDS011;35602;44.534;18.696;2022-11-18T01:38:22;79.03;;;62.83;;
49710;SDS011;35602;44.534;18.696;2022-11-18T01:43:22;77.82;;;59.85;;
49710;SDS011;35602;44.534;18.696;2022-11-18T01:48:32;79.12;;;63.10;;
49710;SDS011;35602;44.534;18.696;2022-11-18T01:53:36;80.90;;;63.47;;
49710;SDS011;35602;44.534;18.696;2022-11-18T01:58:40;75.87;;;60.20;;
49710;SDS011;35602;44.534;18.696;2022-11-18T02:03:49;74.10;;;59.15;;
49710;SDS011;35602;44.534;18.696;2022-11-18T02:08:52;77.45;;;59.85;;
49710;SDS011;35602;44.534;18.696;2022-11-18T02:13:54;76.32;;;59.72;;
49710;SDS011;35602;44.534;18.696;2022-11-18T02:18:57;74.65;;;60.70;;
49710;SDS011;35602;44.534;18.696;2022-11-18T02:24:14;75.37;;;60.05;;
49710;SDS011;35602;44.534;18.696;2022-11-18T02:29:31;77.72;;;60.63;;
49710;SDS011;35602;44.534;18.696;2022-11-18T02:42:14;78.03;;;59.42;;
49710;SDS011;35602;44.534;18.696;2022-11-18T02:47:16;71.65;;;57.53;;
49710;SDS011;35602;44.534;18.696;2022-11-18T02:52:19;74.82;;;60.75;;
49710;SDS011;35602;44.534;18.696;2022-11-18T02:57:22;69.87;;;55.45;;
49710;SDS011;35602;44.534;18.696;2022-11-18T03:02:25;71.10;;;56.20;;
49710;SDS011;35602;44.534;18.696;2022-11-18T03:07:27;71.32;;;54.95;;
49710;SDS011;35602;44.534;18.696;2022-11-18T03:18:15;71.00;;;57.65;;
49710;SDS011;35602;44.534;18.696;2022-11-18T03:23:42;70.95;;;54.90;;
49710;SDS011;35602;44.534;18.696;2022-11-18T03:35:00;70.65;;;56.05;;
49710;SDS011;35602;44.534;18.696;2022-11-18T03:40:12;67.18;;;54.70;;
49710;SDS011;35602;44.534;18.696;2022-11-18T03:45:28;66.93;;;52.83;;
49710;SDS011;35602;44.534;18.696;2022-11-18T03:50:38;67.87;;;55.03;;
49710;SDS011;35602;44.534;18.696;2022-11-18T03:55:49;64.55;;;52.80;;
49710;SDS011;35602;44.534;18.696;2022-11-18T04:00:55;65.80;;;50.97;;
49710;SDS011;35602;44.534;18.696;2022-11-18T04:06:18;66.45;;;52.08;;
49710;SDS011;35602;44.534;18.696;2022-11-18T04:11:29;66.47;;;52.75;;
49710;SDS011;35602;44.534;18.696;2022-11-18T04:16:53;66.45;;;53.08;;
49710;SDS011;35602;44.534;18.696;2022-11-18T04:21:53;62.55;;;51.50;;
49710;SDS011;35602;44.534;18.696;2022-11-18T04:26:54;63.58;;;51.08;;
49710;SDS011;35602;44.534;18.696;2022-11-18T04:31:55;62.70;;;49.20;;
49710;SDS011;35602;44.534;18.696;2022-11-18T04:36:56;63.72;;;51.10;;
49710;SDS011;35602;44.534;18.696;2022-11-18T04:41:57;63.22;;;51.03;;
49710;SDS011;35602;44.534;18.696;2022-11-18T04:47:02;59.45;;;49.20;;
49710;SDS011;35602;44.534;18.696;2022-11-18T04:52:05;60.05;;;48.30;;
49710;SDS011;35602;44.534;18.696;2022-11-18T04:57:06;59.47;;;47.88;;
49710;SDS011;35602;44.534;18.696;2022-11-18T05:02:07;60.97;;;48.42;;
49710;SDS011;35602;44.534;18.696;2022-11-18T05:07:11;57.92;;;46.83;;
49710;SDS011;35602;44.534;18.696;2022-11-18T05:12:14;59.33;;;47.67;;
49710;SDS011;35602;44.534;18.696;2022-11-18T05:17:34;58.10;;;46.33;;
49710;SDS011;35602;44.534;18.696;2022-11-18T05:22:35;61.55;;;48.05;;
49710;SDS011;35602;44.534;18.696;2022-11-18T05:27:36;57.50;;;46.88;;
49710;SDS011;35602;44.534;18.696;2022-11-18T05:32:37;57.15;;;46.28;;
49710;SDS011;35602;44.534;18.696;2022-11-18T05:37:37;59.13;;;47.40;;
49710;SDS011;35602;44.534;18.696;2022-11-18T05:42:38;58.50;;;47.08;;
49710;SDS011;35602;44.534;18.696;2022-11-18T05:47:57;59.35;;;46.33;;
49710;SDS011;35602;44.534;18.696;2022-11-18T05:53:03;55.47;;;44.88;;
49710;SDS011;35602;44.534;18.696;2022-11-18T05:58:04;54.22;;;44.15;;
49710;SDS011;35602;44.534;18.696;2022-11-18T06:03:07;55.20;;;44.15;;
49710;SDS011;35602;44.534;18.696;2022-11-18T06:08:15;54.72;;;43.75;;
49710;SDS011;35602;44.534;18.696;2022-11-18T06:13:19;53.40;;;43.85;;
49710;SDS011;35602;44.534;18.696;2022-11-18T06:18:25;53.38;;;43.30;;
49710;SDS011;35602;44.534;18.696;2022-11-18T06:23:35;58.15;;;45.12;;
49710;SDS011;35602;44.534;18.696;2022-11-18T06:28:37;52.80;;;41.72;;
49710;SDS011;35602;44.534;18.696;2022-11-18T06:33:39;51.55;;;43.72;;
49710;SDS011;35602;44.534;18.696;2022-11-18T06:38:40;52.70;;;42.35;;
49710;SDS011;35602;44.534;18.696;2022-11-18T06:43:41;55.72;;;44.85;;
49710;SDS011;35602;44.534;18.696;2022-11-18T06:48:42;53.92;;;44.78;;
49710;SDS011;35602;44.534;18.696;2022-11-18T06:53:43;54.53;;;44.40;;
49710;SDS011;35602;44.534;18.696;2022-11-18T06:58:44;56.15;;;45.38;;
49710;SDS011;35602;44.534;18.696;2022-11-18T07:03:45;57.22;;;45.50;;
49710;SDS011;35602;44.534;18.696;2022-11-18T07:08:46;56.42;;;47.00;;
49710;SDS011;35602;44.534;18.696;2022-11-18T07:13:48;55.60;;;45.83;;
49710;SDS011;35602;44.534;18.696;2022-11-18T07:18:49;58.10;;;45.67;;
49710;SDS011;35602;44.534;18.696;2022-11-18T07:23:51;57.97;;;47.15;;
49710;SDS011;35602;44.534;18.696;2022-11-18T07:28:52;56.78;;;46.42;;
49710;SDS011;35602;44.534;18.696;2022-11-18T07:33:53;59.10;;;45.80;;
49710;SDS011;35602;44.534;18.696;2022-11-18T07:38:54;59.25;;;48.05;;
49710;SDS011;35602;44.534;18.696;2022-11-18T07:43:58;59.70;;;47.55;;
49710;SDS011;35602;44.534;18.696;2022-11-18T07:49:00;63.75;;;48.78;;
49710;SDS011;35602;44.534;18.696;2022-11-18T07:54:05;59.38;;;48.58;;
49710;SDS011;35602;44.534;18.696;2022-11-18T07:59:07;59.85;;;48.33;;
49710;SDS011;35602;44.534;18.696;2022-11-18T08:04:11;66.62;;;49.13;;
49710;SDS011;35602;44.534;18.696;2022-11-18T08:09:12;63.30;;;50.60;;
49710;SDS011;35602;44.534;18.696;2022-11-18T08:14:13;62.00;;;49.35;;
49710;SDS011;35602;44.534;18.696;2022-11-18T08:19:14;61.75;;;49.08;;
49710;SDS011;35602;44.534;18.696;2022-11-18T08:24:14;69.30;;;52.15;;
49710;SDS011;35602;44.534;18.696;2022-11-18T08:29:16;62.50;;;49.90;;
49710;SDS011;35602;44.534;18.696;2022-11-18T08:34:17;63.90;;;50.58;;
49710;SDS011;35602;44.534;18.696;2022-11-18T08:39:18;66.60;;;52.25;;
49710;SDS011;35602;44.534;18.696;2022-11-18T08:44:19;70.75;;;53.05;;
49710;SDS011;35602;44.534;18.696;2022-11-18T08:49:20;69.60;;;53.05;;
49710;SDS011;35602;44.534;18.696;2022-11-18T08:54:20;66.90;;;54.45;;
49710;SDS011;35602;44.534;18.696;2022-11-18T08:59:21;72.15;;;56.15;;
49710;SDS011;35602;44.534;18.696;2022-11-18T09:04:22;71.90;;;56.92;;
49710;SDS011;35602;44.534;18.696;2022-11-18T09:09:23;71.15;;;56.05;;
49710;SDS011;35602;44.534;18.696;2022-11-18T09:14:24;74.85;;;55.78;;
49710;SDS011;35602;44.534;18.696;2022-11-18T09:19:25;72.65;;;55.03;;
49710;SDS011;35602;44.534;18.696;2022-11-18T09:24:26;74.37;;;56.78;;
49710;SDS011;35602;44.534;18.696;2022-11-18T09:29:27;74.25;;;57.33;;
49710;SDS011;35602;44.534;18.696;2022-11-18T09:34:28;76.93;;;59.83;;
49710;SDS011;35602;44.534;18.696;2022-11-18T09:39:29;73.68;;;59.40;;
49710;SDS011;35602;44.534;18.696;2022-11-18T09:44:52;79.32;;;60.55;;
49710;SDS011;35602;44.534;18.696;2022-11-18T09:50:05;79.70;;;59.65;;
49710;SDS011;35602;44.534;18.696;2022-11-18T09:55:13;84.85;;;62.72;;
49710;SDS011;35602;44.534;18.696;2022-11-18T10:00:16;88.68;;;64.60;;
49710;SDS011;35602;44.534;18.696;2022-11-18T10:05:24;90.55;;;65.75;;
49710;SDS011;35602;44.534;18.696;2022-11-18T10:10:37;83.62;;;65.43;;
49710;SDS011;35602;44.534;18.696;2022-11-18T10:16:03;92.40;;;69.43;;
49710;SDS011;35602;44.534;18.696;2022-11-18T10:34:27;99.40;;;70.62;;
49710;SDS011;35602;44.534;18.696;2022-11-18T10:39:29;100.50;;;73.95;;
49710;SDS011;35602;44.534;18.696;2022-11-18T10:44:34;104.10;;;76.10;;
49710;SDS011;35602;44.534;18.696;2022-11-18T10:49:39;95.07;;;72.45;;
49710;SDS011;35602;44.534;18.696;2022-11-18T10:54:40;104.97;;;77.20;;
49710;SDS011;35602;44.534;18.696;2022-11-18T10:59:49;103.60;;;75.47;;
49710;SDS011;35602;44.534;18.696;2022-11-18T11:04:54;96.57;;;73.65;;
49710;SDS011;35602;44.534;18.696;2022-11-18T11:15:34;93.37;;;72.75;;
49710;SDS011;35602;44.534;18.696;2022-11-18T11:20:38;99.30;;;74.47;;
49710;SDS011;35602;44.534;18.696;2022-11-18T11:25:46;98.03;;;74.05;;
49710;SDS011;35602;44.534;18.696;2022-11-18T11:31:42;102.07;;;75.15;;
49710;SDS011;35602;44.534;18.696;2022-11-18T11:53:19;96.22;;;73.10;;
49710;SDS011;35602;44.534;18.696;2022-11-18T12:21:51;92.40;;;70.82;;
49710;SDS011;35602;44.534;18.696;2022-11-18T12:26:53;101.50;;;74.60;;
49710;SDS011;35602;44.534;18.696;2022-11-18T12:31:56;93.72;;;71.65;;
49710;SDS011;35602;44.534;18.696;2022-11-18T12:42:45;95.85;;;70.90;;
49710;SDS011;35602;44.534;18.696;2022-11-18T12:53:34;94.72;;;72.80;;
49710;SDS011;35602;44.534;18.696;2022-11-18T12:58:43;93.62;;;70.95;;
49710;SDS011;35602;44.534;18.696;2022-11-18T13:03:45;91.97;;;71.28;;
49710;SDS011;35602;44.534;18.696;2022-11-18T13:08:49;92.72;;;71.95;;
49710;SDS011;35602;44.534;18.696;2022-11-18T13:13:53;98.80;;;72.93;;
49710;SDS011;35602;44.534;18.696;2022-11-18T13:19:20;97.30;;;72.87;;
49710;SDS011;35602;44.534;18.696;2022-11-18T13:24:22;85.50;;;67.53;;
49710;SDS011;35602;44.534;18.696;2022-11-18T13:29:27;92.50;;;71.28;;
49710;SDS011;35602;44.534;18.696;2022-11-18T13:35:10;93.47;;;71.20;;
49710;SDS011;35602;44.534;18.696;2022-11-18T13:40:30;89.47;;;69.15;;
49710;SDS011;35602;44.534;18.696;2022-11-18T13:45:38;87.80;;;67.70;;
49710;SDS011;35602;44.534;18.696;2022-11-18T13:50:41;88.70;;;68.00;;
49710;SDS011;35602;44.534;18.696;2022-11-18T13:55:59;87.82;;;67.75;;
49710;SDS011;35602;44.534;18.696;2022-11-18T14:01:33;91.45;;;70.22;;
49710;SDS011;35602;44.534;18.696;2022-11-18T14:06:35;85.30;;;68.22;;
49710;SDS011;35602;44.534;18.696;2022-11-18T14:11:41;82.05;;;65.50;;
49710;SDS011;35602;44.534;18.696;2022-11-18T14:16:43;84.13;;;66.25;;
49710;SDS011;35602;44.534;18.696;2022-11-18T14:21:44;81.60;;;66.00;;
49710;SDS011;35602;44.534;18.696;2022-11-18T14:26:45;83.90;;;65.43;;
49710;SDS011;35602;44.534;18.696;2022-11-18T14:37:15;84.82;;;65.62;;
49710;SDS011;35602;44.534;18.696;2022-11-18T14:42:16;80.53;;;64.15;;
49710;SDS011;35602;44.534;18.696;2022-11-18T14:47:26;80.90;;;64.55;;
49710;SDS011;35602;44.534;18.696;2022-11-18T14:52:28;78.35;;;62.95;;
49710;SDS011;35602;44.534;18.696;2022-11-18T14:57:29;79.25;;;61.45;;
49710;SDS011;35602;44.534;18.696;2022-11-18T15:02:30;78.03;;;62.88;;
49710;SDS011;35602;44.534;18.696;2022-11-18T15:07:30;79.78;;;62.53;;
49710;SDS011;35602;44.534;18.696;2022-11-18T15:12:31;75.93;;;62.05;;
49710;SDS011;35602;44.534;18.696;2022-11-18T15:17:32;81.32;;;63.22;;
49710;SDS011;35602;44.534;18.696;2022-11-18T15:22:33;75.25;;;60.38;;
49710;SDS011;35602;44.534;18.696;2022-11-18T15:27:34;78.55;;;61.60;;
49710;SDS011;35602;44.534;18.696;2022-11-18T15:32:35;76.85;;;61.47;;
49710;SDS011;35602;44.534;18.696;2022-11-18T15:37:36;78.80;;;62.30;;
49710;SDS011;35602;44.534;18.696;2022-11-18T15:42:36;77.45;;;60.63;;
49710;SDS011;35602;44.534;18.696;2022-11-18T15:47:37;77.12;;;60.80;;
49710;SDS011;35602;44.534;18.696;2022-11-18T15:52:38;78.18;;;60.85;;
49710;SDS011;35602;44.534;18.696;2022-11-18T15:57:39;80.18;;;62.15;;
49710;SDS011;35602;44.534;18.696;2022-11-18T16:02:39;76.22;;;62.03;;
49710;SDS011;35602;44.534;18.696;2022-11-18T16:07:40;76.18;;;62.03;;
49710;SDS011;35602;44.534;18.696;2022-11-18T16:12:41;77.32;;;61.60;;
49710;SDS011;35602;44.534;18.696;2022-11-18T16:17:48;73.70;;;60.17;;
49710;SDS011;35602;44.534;18.696;2022-11-18T16:22:49;76.90;;;62.62;;
49710;SDS011;35602;44.534;18.696;2022-11-18T16:27:51;75.85;;;60.58;;
49710;SDS011;35602;44.534;18.696;2022-11-18T16:32:52;77.80;;;61.13;;
49710;SDS011;35602;44.534;18.696;2022-11-18T16:37:53;77.20;;;61.65;;
49710;SDS011;35602;44.534;18.696;2022-11-18T16:42:54;76.00;;;59.78;;
49710;SDS011;35602;44.534;18.696;2022-11-18T16:47:55;77.70;;;61.85;;
49710;SDS011;35602;44.534;18.696;2022-11-18T16:52:55;74.90;;;60.40;;
49710;SDS011;35602;44.534;18.696;2022-11-18T16:57:57;72.22;;;60.58;;
49710;SDS011;35602;44.534;18.696;2022-11-18T17:02:58;77.80;;;60.72;;
49710;SDS011;35602;44.534;18.696;2022-11-18T17:08:00;76.37;;;61.08;;
49710;SDS011;35602;44.534;18.696;2022-11-18T17:13:01;74.72;;;60.97;;
49710;SDS011;35602;44.534;18.696;2022-11-18T17:18:02;79.10;;;63.83;;
49710;SDS011;35602;44.534;18.696;2022-11-18T17:23:03;73.72;;;59.47;;
49710;SDS011;35602;44.534;18.696;2022-11-18T17:28:04;76.87;;;61.60;;
49710;SDS011;35602;44.534;18.696;2022-11-18T17:33:04;77.72;;;62.22;;
49710;SDS011;35602;44.534;18.696;2022-11-18T17:38:06;75.93;;;61.78;;
49710;SDS011;35602;44.534;18.696;2022-11-18T17:43:07;81.82;;;64.60;;
49710;SDS011;35602;44.534;18.696;2022-11-18T17:48:08;75.28;;;60.15;;
49710;SDS011;35602;44.534;18.696;2022-11-18T17:53:08;76.95;;;61.88;;
49710;SDS011;35602;44.534;18.696;2022-11-18T17:58:09;77.05;;;61.22;;
49710;SDS011;35602;44.534;18.696;2022-11-18T18:03:11;78.00;;;63.42;;
49710;SDS011;35602;44.534;18.696;2022-11-18T18:08:12;76.78;;;61.88;;
49710;SDS011;35602;44.534;18.696;2022-11-18T18:13:12;79.12;;;63.70;;
49710;SDS011;35602;44.534;18.696;2022-11-18T18:18:32;75.80;;;61.67;;
49710;SDS011;35602;44.534;18.696;2022-11-18T18:23:33;77.00;;;60.75;;
49710;SDS011;35602;44.534;18.696;2022-11-18T18:28:35;83.05;;;63.78;;
49710;SDS011;35602;44.534;18.696;2022-11-18T18:33:36;76.07;;;60.45;;
49710;SDS011;35602;44.534;18.696;2022-11-18T18:38:41;79.87;;;63.55;;
49710;SDS011;35602;44.534;18.696;2022-11-18T18:43:43;80.72;;;64.45;;
49710;SDS011;35602;44.534;18.696;2022-11-18T18:48:45;83.28;;;65.60;;
49710;SDS011;35602;44.534;18.696;2022-11-18T18:53:46;82.18;;;64.28;;
49710;SDS011;35602;44.534;18.696;2022-11-18T18:58:46;80.40;;;63.53;;
49710;SDS011;35602;44.534;18.696;2022-11-18T19:03:51;84.28;;;66.53;;
49710;SDS011;35602;44.534;18.696;2022-11-18T19:08:54;81.97;;;66.03;;
49710;SDS011;35602;44.534;18.696;2022-11-18T19:13:58;84.53;;;68.37;;
49710;SDS011;35602;44.534;18.696;2022-11-18T19:19:00;81.80;;;65.32;;
49710;SDS011;35602;44.534;18.696;2022-11-18T19:24:02;84.85;;;66.07;;
49710;SDS011;35602;44.534;18.696;2022-11-18T19:29:04;82.15;;;65.75;;
49710;SDS011;35602;44.534;18.696;2022-11-18T19:34:05;82.10;;;64.65;;
49710;SDS011;35602;44.534;18.696;2022-11-18T19:39:06;86.60;;;68.22;;
49710;SDS011;35602;44.534;18.696;2022-11-18T19:44:06;84.13;;;66.68;;
49710;SDS011;35602;44.534;18.696;2022-11-18T19:49:07;86.28;;;68.28;;
49710;SDS011;35602;44.534;18.696;2022-11-18T19:54:08;83.37;;;66.95;;
49710;SDS011;35602;44.534;18.696;2022-11-18T19:59:10;85.32;;;66.90;;
49710;SDS011;35602;44.534;18.696;2022-11-18T20:04:11;86.30;;;68.10;;
49710;SDS011;35602;44.534;18.696;2022-11-18T20:09:12;88.65;;;69.43;;
49710;SDS011;35602;44.534;18.696;2022-11-18T20:14:15;87.55;;;69.40;;
49710;SDS011;35602;44.534;18.696;2022-11-18T20:19:15;85.97;;;67.10;;
49710;SDS011;35602;44.534;18.696;2022-11-18T20:24:17;85.28;;;66.05;;
49710;SDS011;35602;44.534;18.696;2022-11-18T20:29:18;84.53;;;66.87;;
49710;SDS011;35602;44.534;18.696;2022-11-18T20:34:22;82.30;;;65.62;;
49710;SDS011;35602;44.534;18.696;2022-11-18T20:39:22;84.43;;;65.78;;
49710;SDS011;35602;44.534;18.696;2022-11-18T20:44:24;79.22;;;63.78;;
49710;SDS011;35602;44.534;18.696;2022-11-18T20:49:24;81.87;;;64.18;;
49710;SDS011;35602;44.534;18.696;2022-11-18T20:54:25;81.82;;;63.50;;
49710;SDS011;35602;44.534;18.696;2022-11-18T20:59:26;80.07;;;63.90;;
49710;SDS011;35602;44.534;18.696;2022-11-18T21:04:27;79.20;;;62.30;;
49710;SDS011;35602;44.534;18.696;2022-11-18T21:09:27;78.40;;;62.13;;
49710;SDS011;35602;44.534;18.696;2022-11-18T21:14:31;76.90;;;60.40;;
49710;SDS011;35602;44.534;18.696;2022-11-18T21:19:32;78.93;;;61.55;;
49710;SDS011;35602;44.534;18.696;2022-11-18T21:24:33;74.62;;;57.25;;
49710;SDS011;35602;44.534;18.696;2022-11-18T21:29:34;76.82;;;58.97;;
49710;SDS011;35602;44.534;18.696;2022-11-18T21:34:35;71.47;;;56.67;;
49710;SDS011;35602;44.534;18.696;2022-11-18T21:39:36;70.68;;;56.45;;
49710;SDS011;35602;44.534;18.696;2022-11-18T21:44:36;73.28;;;58.65;;
49710;SDS011;35602;44.534;18.696;2022-11-18T21:49:37;65.95;;;54.47;;
49710;SDS011;35602;44.534;18.696;2022-11-18T21:54:38;71.55;;;56.75;;
49710;SDS011;35602;44.534;18.696;2022-11-18T21:59:39;66.37;;;52.42;;
49710;SDS011;35602;44.534;18.696;2022-11-18T22:04:40;68.60;;;55.30;;
49710;SDS011;35602;44.534;18.696;2022-11-18T22:09:53;69.05;;;54.22;;
49710;SDS011;35602;44.534;18.696;2022-11-18T22:14:54;67.53;;;53.67;;
49710;SDS011;35602;44.534;18.696;2022-11-18T22:19:55;67.57;;;52.22;;
49710;SDS011;35602;44.534;18.696;2022-11-18T22:24:55;63.03;;;50.38;;
49710;SDS011;35602;44.534;18.696;2022-11-18T22:29:56;63.55;;;51.20;;
49710;SDS011;35602;44.534;18.696;2022-11-18T22:34:57;62.33;;;50.45;;
49710;SDS011;35602;44.534;18.696;2022-11-18T22:39:58;63.70;;;51.05;;
49710;SDS011;35602;44.534;18.696;2022-11-18T22:44:59;61.47;;;49.80;;
49710;SDS011;35602;44.534;18.696;2022-11-18T22:49:59;61.95;;;50.22;;
49710;SDS011;35602;44.534;18.696;2022-11-18T22:55:00;65.60;;;50.83;;
49710;SDS011;35602;44.534;18.696;2022-11-18T23:00:01;60.17;;;47.45;;
49710;SDS011;35602;44.534;18.696;2022-11-18T23:05:04;59.25;;;48.80;;
49710;SDS011;35602;44.534;18.696;2022-11-18T23:10:06;61.72;;;49.00;;
49710;SDS011;35602;44.534;18.696;2022-11-18T23:15:08;59.30;;;47.53;;
49710;SDS011;35602;44.534;18.696;2022-11-18T23:20:09;56.72;;;46.85;;
49710;SDS011;35602;44.534;18.696;2022-11-18T23:25:10;56.90;;;45.38;;
49710;SDS011;35602;44.534;18.696;2022-11-18T23:30:11;55.78;;;45.72;;
49710;SDS011;35602;44.534;18.696;2022-11-18T23:35:12;55.95;;;45.88;;
49710;SDS011;35602;44.534;18.696;2022-11-18T23:40:14;58.10;;;46.80;;
49710;SDS011;35602;44.534;18.696;2022-11-18T23:45:15;53.60;;;43.17;;
49710;SDS011;35602;44.534;18.696;2022-11-18T23:50:16;57.20;;;45.30;;
49710;SDS011;35602;44.534;18.696;2022-11-18T23:55:17;56.35;;;44.70;;
